sensor_id;sensor_type;location;lat;lon;timestamp;P1;durP1;ratioP1;P2;durP2;ratioP2
3563;SDS011;1796;52.388;13.096;2022-10-16T00:00:56;2.20;;;2.10;;
3563;SDS011;1796;52.388;13.096;2022-10-16T00:03:23;2.03;;;1.97;;
3563;SDS011;1796;52.388;13.096;2022-10-16T00:05:49;2.53;;;2.33;;
3563;SDS011;1796;52.388;13.096;2022-10-16T00:08:16;2.20;;;2.00;;
3563;SDS011;1796;52.388;13.096;2022-10-16T00:10:43;2.70;;;2.40;;
3563;SDS011;1796;52.388;13.096;2022-10-16T00:13:10;2.00;;;1.87;;
3563;SDS011;1796;52.388;13.096;2022-10-16T00:15:38;1.97;;;1.87;;
3563;SDS011;1796;52.388;13.096;2022-10-16T00:18:05;1.87;;;1.77;;
3563;SDS011;1796;52.388;13.096;2022-10-16T00:20:33;1.87;;;1.77;;
3563;SDS011;1796;52.388;13.096;2022-10-16T00:23:02;1.57;;;1.57;;
3563;SDS011;1796;52.388;13.096;2022-10-16T00:25:29;5.90;;;2.07;;
3563;SDS011;1796;52.388;13.096;2022-10-16T00:27:57;1.90;;;1.80;;
3563;SDS011;1796;52.388;13.096;2022-10-16T00:30:24;2.00;;;1.90;;
3563;SDS011;1796;52.388;13.096;2022-10-16T00:32:54;3.33;;;1.87;;
3563;SDS011;1796;52.388;13.096;2022-10-16T00:35:21;1.93;;;1.83;;
3563;SDS011;1796;52.388;13.096;2022-10-16T00:37:48;2.40;;;1.80;;
3563;SDS011;1796;52.388;13.096;2022-10-16T00:40:14;2.40;;;1.90;;
3563;SDS011;1796;52.388;13.096;2022-10-16T00:42:41;1.67;;;1.60;;
3563;SDS011;1796;52.388;13.096;2022-10-16T00:45:08;2.17;;;2.00;;
3563;SDS011;1796;52.388;13.096;2022-10-16T00:47:36;1.73;;;1.63;;
3563;SDS011;1796;52.388;13.096;2022-10-16T00:50:08;1.70;;;1.60;;
3563;SDS011;1796;52.388;13.096;2022-10-16T00:52:37;2.53;;;2.10;;
3563;SDS011;1796;52.388;13.096;2022-10-16T00:55:08;1.33;;;1.33;;
3563;SDS011;1796;52.388;13.096;2022-10-16T00:57:35;2.70;;;2.00;;
3563;SDS011;1796;52.388;13.096;2022-10-16T01:00:04;1.80;;;1.70;;
3563;SDS011;1796;52.388;13.096;2022-10-16T01:02:33;2.00;;;1.87;;
3563;SDS011;1796;52.388;13.096;2022-10-16T01:05:00;1.53;;;1.53;;
3563;SDS011;1796;52.388;13.096;2022-10-16T01:07:33;3.03;;;1.37;;
3563;SDS011;1796;52.388;13.096;2022-10-16T01:10:07;1.53;;;1.53;;
3563;SDS011;1796;52.388;13.096;2022-10-16T01:12:41;1.53;;;1.47;;
3563;SDS011;1796;52.388;13.096;2022-10-16T01:15:13;2.30;;;1.60;;
3563;SDS011;1796;52.388;13.096;2022-10-16T01:17:51;1.70;;;1.60;;
3563;SDS011;1796;52.388;13.096;2022-10-16T01:20:24;1.87;;;1.60;;
3563;SDS011;1796;52.388;13.096;2022-10-16T01:23:01;4.13;;;2.80;;
3563;SDS011;1796;52.388;13.096;2022-10-16T01:25:39;2.40;;;1.37;;
3563;SDS011;1796;52.388;13.096;2022-10-16T01:28:32;1.70;;;1.60;;
3563;SDS011;1796;52.388;13.096;2022-10-16T01:31:05;1.80;;;1.70;;
3563;SDS011;1796;52.388;13.096;2022-10-16T01:33:35;1.90;;;1.90;;
3563;SDS011;1796;52.388;13.096;2022-10-16T01:36:06;2.10;;;1.70;;
3563;SDS011;1796;52.388;13.096;2022-10-16T01:38:38;1.63;;;1.63;;
3563;SDS011;1796;52.388;13.096;2022-10-16T01:41:07;1.60;;;1.53;;
3563;SDS011;1796;52.388;13.096;2022-10-16T01:43:39;1.50;;;1.50;;
3563;SDS011;1796;52.388;13.096;2022-10-16T01:46:11;1.50;;;1.40;;
3563;SDS011;1796;52.388;13.096;2022-10-16T01:48:42;1.43;;;1.33;;
3563;SDS011;1796;52.388;13.096;2022-10-16T01:51:10;1.83;;;1.73;;
3563;SDS011;1796;52.388;13.096;2022-10-16T01:53:39;1.50;;;1.50;;
3563;SDS011;1796;52.388;13.096;2022-10-16T01:56:09;1.57;;;1.47;;
3563;SDS011;1796;52.388;13.096;2022-10-16T01:58:41;1.73;;;1.63;;
3563;SDS011;1796;52.388;13.096;2022-10-16T02:01:11;2.83;;;1.97;;
3563;SDS011;1796;52.388;13.096;2022-10-16T02:03:40;3.20;;;1.63;;
3563;SDS011;1796;52.388;13.096;2022-10-16T02:06:11;1.57;;;1.47;;
3563;SDS011;1796;52.388;13.096;2022-10-16T02:08:38;1.40;;;1.33;;
3563;SDS011;1796;52.388;13.096;2022-10-16T02:11:09;1.50;;;1.50;;
3563;SDS011;1796;52.388;13.096;2022-10-16T02:13:37;1.83;;;1.73;;
3563;SDS011;1796;52.388;13.096;2022-10-16T02:16:09;1.67;;;1.57;;
3563;SDS011;1796;52.388;13.096;2022-10-16T02:18:37;2.10;;;1.53;;
3563;SDS011;1796;52.388;13.096;2022-10-16T02:21:05;1.60;;;1.60;;
3563;SDS011;1796;52.388;13.096;2022-10-16T02:23:41;1.80;;;1.70;;
3563;SDS011;1796;52.388;13.096;2022-10-16T02:26:16;1.30;;;1.30;;
3563;SDS011;1796;52.388;13.096;2022-10-16T02:28:51;3.37;;;1.47;;
3563;SDS011;1796;52.388;13.096;2022-10-16T02:31:22;1.70;;;1.60;;
3563;SDS011;1796;52.388;13.096;2022-10-16T02:33:54;1.20;;;1.20;;
3563;SDS011;1796;52.388;13.096;2022-10-16T02:36:24;1.60;;;1.60;;
3563;SDS011;1796;52.388;13.096;2022-10-16T02:38:51;1.57;;;1.47;;
3563;SDS011;1796;52.388;13.096;2022-10-16T02:41:19;1.50;;;1.50;;
3563;SDS011;1796;52.388;13.096;2022-10-16T02:43:47;4.23;;;1.70;;
3563;SDS011;1796;52.388;13.096;2022-10-16T02:46:15;2.10;;;1.90;;
3563;SDS011;1796;52.388;13.096;2022-10-16T02:48:44;1.60;;;1.60;;
3563;SDS011;1796;52.388;13.096;2022-10-16T02:51:11;2.07;;;1.93;;
3563;SDS011;1796;52.388;13.096;2022-10-16T02:53:38;1.90;;;1.60;;
3563;SDS011;1796;52.388;13.096;2022-10-16T02:56:04;1.60;;;1.60;;
3563;SDS011;1796;52.388;13.096;2022-10-16T02:58:31;1.87;;;1.77;;
3563;SDS011;1796;52.388;13.096;2022-10-16T03:00:58;1.77;;;1.67;;
3563;SDS011;1796;52.388;13.096;2022-10-16T03:03:26;1.43;;;1.43;;
3563;SDS011;1796;52.388;13.096;2022-10-16T03:05:53;5.43;;;1.90;;
3563;SDS011;1796;52.388;13.096;2022-10-16T03:08:20;1.60;;;1.60;;
3563;SDS011;1796;52.388;13.096;2022-10-16T03:10:48;2.43;;;1.80;;
3563;SDS011;1796;52.388;13.096;2022-10-16T03:13:15;2.13;;;1.90;;
3563;SDS011;1796;52.388;13.096;2022-10-16T03:15:43;1.63;;;1.53;;
3563;SDS011;1796;52.388;13.096;2022-10-16T03:18:10;1.73;;;1.63;;
3563;SDS011;1796;52.388;13.096;2022-10-16T03:20:38;1.93;;;1.60;;
3563;SDS011;1796;52.388;13.096;2022-10-16T03:23:05;8.70;;;2.00;;
3563;SDS011;1796;52.388;13.096;2022-10-16T03:25:33;1.80;;;1.60;;
3563;SDS011;1796;52.388;13.096;2022-10-16T03:28:00;2.00;;;1.40;;
3563;SDS011;1796;52.388;13.096;2022-10-16T03:30:27;1.70;;;1.60;;
3563;SDS011;1796;52.388;13.096;2022-10-16T03:32:53;2.50;;;2.17;;
3563;SDS011;1796;52.388;13.096;2022-10-16T03:35:20;1.87;;;1.77;;
3563;SDS011;1796;52.388;13.096;2022-10-16T03:37:49;3.70;;;1.87;;
3563;SDS011;1796;52.388;13.096;2022-10-16T03:40:16;1.43;;;1.43;;
3563;SDS011;1796;52.388;13.096;2022-10-16T03:42:43;1.67;;;1.57;;
3563;SDS011;1796;52.388;13.096;2022-10-16T03:45:10;1.83;;;1.83;;
3563;SDS011;1796;52.388;13.096;2022-10-16T03:47:37;3.43;;;1.93;;
3563;SDS011;1796;52.388;13.096;2022-10-16T03:50:05;1.40;;;1.40;;
3563;SDS011;1796;52.388;13.096;2022-10-16T03:52:32;1.97;;;1.87;;
3563;SDS011;1796;52.388;13.096;2022-10-16T03:55:01;1.80;;;1.70;;
3563;SDS011;1796;52.388;13.096;2022-10-16T03:57:27;1.93;;;1.90;;
3563;SDS011;1796;52.388;13.096;2022-10-16T03:59:54;2.60;;;2.47;;
3563;SDS011;1796;52.388;13.096;2022-10-16T04:02:21;1.47;;;1.47;;
3563;SDS011;1796;52.388;13.096;2022-10-16T04:04:48;3.47;;;2.00;;
3563;SDS011;1796;52.388;13.096;2022-10-16T04:07:15;2.50;;;2.00;;
3563;SDS011;1796;52.388;13.096;2022-10-16T04:09:42;2.23;;;2.13;;
3563;SDS011;1796;52.388;13.096;2022-10-16T04:12:10;6.00;;;2.10;;
3563;SDS011;1796;52.388;13.096;2022-10-16T04:14:37;2.13;;;2.03;;
3563;SDS011;1796;52.388;13.096;2022-10-16T04:17:04;2.20;;;2.10;;
3563;SDS011;1796;52.388;13.096;2022-10-16T04:19:30;2.10;;;2.10;;
3563;SDS011;1796;52.388;13.096;2022-10-16T04:21:57;2.67;;;2.50;;
3563;SDS011;1796;52.388;13.096;2022-10-16T04:24:24;2.37;;;2.17;;
3563;SDS011;1796;52.388;13.096;2022-10-16T04:26:51;2.60;;;2.50;;
3563;SDS011;1796;52.388;13.096;2022-10-16T04:29:19;6.20;;;3.23;;
3563;SDS011;1796;52.388;13.096;2022-10-16T04:31:46;4.20;;;3.90;;
3563;SDS011;1796;52.388;13.096;2022-10-16T04:34:13;3.93;;;3.63;;
3563;SDS011;1796;52.388;13.096;2022-10-16T04:36:40;2.90;;;2.80;;
3563;SDS011;1796;52.388;13.096;2022-10-16T04:39:07;3.63;;;3.43;;
3563;SDS011;1796;52.388;13.096;2022-10-16T04:41:33;3.43;;;3.20;;
3563;SDS011;1796;52.388;13.096;2022-10-16T04:44:00;3.00;;;2.80;;
3563;SDS011;1796;52.388;13.096;2022-10-16T04:46:29;4.57;;;3.50;;
3563;SDS011;1796;52.388;13.096;2022-10-16T04:48:55;2.90;;;2.50;;
3563;SDS011;1796;52.388;13.096;2022-10-16T04:51:22;4.87;;;2.23;;
3563;SDS011;1796;52.388;13.096;2022-10-16T04:53:50;2.57;;;2.40;;
3563;SDS011;1796;52.388;13.096;2022-10-16T04:56:17;2.53;;;2.33;;
3563;SDS011;1796;52.388;13.096;2022-10-16T04:58:44;2.30;;;2.20;;
3563;SDS011;1796;52.388;13.096;2022-10-16T05:01:11;2.60;;;2.40;;
3563;SDS011;1796;52.388;13.096;2022-10-16T05:03:39;2.77;;;2.40;;
3563;SDS011;1796;52.388;13.096;2022-10-16T05:06:06;5.50;;;2.13;;
3563;SDS011;1796;52.388;13.096;2022-10-16T05:08:33;2.53;;;2.33;;
3563;SDS011;1796;52.388;13.096;2022-10-16T05:11:00;2.40;;;2.00;;
3563;SDS011;1796;52.388;13.096;2022-10-16T05:13:27;10.97;;;2.00;;
3563;SDS011;1796;52.388;13.096;2022-10-16T05:15:54;2.20;;;2.00;;
3563;SDS011;1796;52.388;13.096;2022-10-16T05:18:22;1.80;;;1.80;;
3563;SDS011;1796;52.388;13.096;2022-10-16T05:20:50;2.10;;;2.10;;
3563;SDS011;1796;52.388;13.096;2022-10-16T05:23:17;4.33;;;2.13;;
3563;SDS011;1796;52.388;13.096;2022-10-16T05:25:51;2.57;;;2.00;;
3563;SDS011;1796;52.388;13.096;2022-10-16T05:28:19;2.20;;;1.87;;
3563;SDS011;1796;52.388;13.096;2022-10-16T05:30:46;2.40;;;2.30;;
3563;SDS011;1796;52.388;13.096;2022-10-16T05:33:12;2.10;;;2.10;;
3563;SDS011;1796;52.388;13.096;2022-10-16T05:35:39;4.40;;;2.30;;
3563;SDS011;1796;52.388;13.096;2022-10-16T05:38:07;2.23;;;2.13;;
3563;SDS011;1796;52.388;13.096;2022-10-16T05:40:34;1.90;;;1.90;;
3563;SDS011;1796;52.388;13.096;2022-10-16T05:43:01;2.73;;;2.53;;
3563;SDS011;1796;52.388;13.096;2022-10-16T05:45:28;2.80;;;2.60;;
3563;SDS011;1796;52.388;13.096;2022-10-16T05:47:55;2.50;;;2.40;;
3563;SDS011;1796;52.388;13.096;2022-10-16T05:50:22;2.50;;;2.40;;
3563;SDS011;1796;52.388;13.096;2022-10-16T05:52:49;2.40;;;2.30;;
3563;SDS011;1796;52.388;13.096;2022-10-16T05:55:17;2.73;;;2.63;;
3563;SDS011;1796;52.388;13.096;2022-10-16T05:57:44;3.03;;;2.83;;
3563;SDS011;1796;52.388;13.096;2022-10-16T06:00:11;2.53;;;2.43;;
3563;SDS011;1796;52.388;13.096;2022-10-16T06:02:38;4.27;;;2.50;;
3563;SDS011;1796;52.388;13.096;2022-10-16T06:05:05;2.20;;;2.10;;
3563;SDS011;1796;52.388;13.096;2022-10-16T06:07:33;2.33;;;2.23;;
3563;SDS011;1796;52.388;13.096;2022-10-16T06:10:00;2.67;;;2.10;;
3563;SDS011;1796;52.388;13.096;2022-10-16T06:12:29;2.20;;;2.10;;
3563;SDS011;1796;52.388;13.096;2022-10-16T06:14:56;2.23;;;2.03;;
3563;SDS011;1796;52.388;13.096;2022-10-16T06:17:22;2.80;;;2.60;;
3563;SDS011;1796;52.388;13.096;2022-10-16T06:19:49;8.43;;;2.67;;
3563;SDS011;1796;52.388;13.096;2022-10-16T06:22:16;2.30;;;2.10;;
3563;SDS011;1796;52.388;13.096;2022-10-16T06:24:43;2.70;;;2.30;;
3563;SDS011;1796;52.388;13.096;2022-10-16T06:27:10;2.60;;;1.97;;
3563;SDS011;1796;52.388;13.096;2022-10-16T06:29:38;1.97;;;1.87;;
3563;SDS011;1796;52.388;13.096;2022-10-16T06:32:05;4.20;;;2.00;;
3563;SDS011;1796;52.388;13.096;2022-10-16T06:34:32;2.97;;;2.07;;
3563;SDS011;1796;52.388;13.096;2022-10-16T06:36:58;3.20;;;1.70;;
3563;SDS011;1796;52.388;13.096;2022-10-16T06:39:25;2.20;;;2.10;;
3563;SDS011;1796;52.388;13.096;2022-10-16T06:41:52;2.97;;;2.77;;
3563;SDS011;1796;52.388;13.096;2022-10-16T06:44:19;2.43;;;2.33;;
3563;SDS011;1796;52.388;13.096;2022-10-16T06:46:47;2.30;;;2.20;;
3563;SDS011;1796;52.388;13.096;2022-10-16T06:49:14;2.30;;;2.10;;
3563;SDS011;1796;52.388;13.096;2022-10-16T06:51:46;6.40;;;2.37;;
3563;SDS011;1796;52.388;13.096;2022-10-16T06:54:14;6.33;;;2.60;;
3563;SDS011;1796;52.388;13.096;2022-10-16T06:56:42;2.30;;;2.20;;
3563;SDS011;1796;52.388;13.096;2022-10-16T06:59:09;2.43;;;2.23;;
3563;SDS011;1796;52.388;13.096;2022-10-16T07:01:36;2.40;;;2.10;;
3563;SDS011;1796;52.388;13.096;2022-10-16T07:04:04;5.60;;;2.27;;
3563;SDS011;1796;52.388;13.096;2022-10-16T07:06:32;2.67;;;2.47;;
3563;SDS011;1796;52.388;13.096;2022-10-16T07:09:00;2.17;;;1.97;;
3563;SDS011;1796;52.388;13.096;2022-10-16T07:11:29;3.10;;;1.90;;
3563;SDS011;1796;52.388;13.096;2022-10-16T07:13:56;2.60;;;2.33;;
3563;SDS011;1796;52.388;13.096;2022-10-16T07:16:23;1.40;;;1.30;;
3563;SDS011;1796;52.388;13.096;2022-10-16T07:18:53;1.60;;;1.40;;
3563;SDS011;1796;52.388;13.096;2022-10-16T07:21:25;1.63;;;1.53;;
3563;SDS011;1796;52.388;13.096;2022-10-16T07:23:54;3.37;;;1.80;;
3563;SDS011;1796;52.388;13.096;2022-10-16T07:26:22;4.73;;;1.70;;
3563;SDS011;1796;52.388;13.096;2022-10-16T07:28:50;1.77;;;1.67;;
3563;SDS011;1796;52.388;13.096;2022-10-16T07:31:17;1.33;;;1.33;;
3563;SDS011;1796;52.388;13.096;2022-10-16T07:33:46;2.00;;;1.67;;
3563;SDS011;1796;52.388;13.096;2022-10-16T07:36:14;1.50;;;1.40;;
3563;SDS011;1796;52.388;13.096;2022-10-16T07:38:43;1.30;;;1.30;;
3563;SDS011;1796;52.388;13.096;2022-10-16T07:41:11;1.50;;;1.50;;
3563;SDS011;1796;52.388;13.096;2022-10-16T07:43:39;1.87;;;1.77;;
3563;SDS011;1796;52.388;13.096;2022-10-16T07:46:11;3.63;;;1.30;;
3563;SDS011;1796;52.388;13.096;2022-10-16T07:48:37;1.83;;;1.73;;
3563;SDS011;1796;52.388;13.096;2022-10-16T07:51:05;3.83;;;1.60;;
3563;SDS011;1796;52.388;13.096;2022-10-16T07:53:33;1.80;;;1.70;;
3563;SDS011;1796;52.388;13.096;2022-10-16T07:56:02;1.97;;;1.67;;
3563;SDS011;1796;52.388;13.096;2022-10-16T07:58:31;3.37;;;1.20;;
3563;SDS011;1796;52.388;13.096;2022-10-16T08:00:58;5.30;;;1.50;;
3563;SDS011;1796;52.388;13.096;2022-10-16T08:03:29;1.13;;;1.03;;
3563;SDS011;1796;52.388;13.096;2022-10-16T08:05:56;3.60;;;1.70;;
3563;SDS011;1796;52.388;13.096;2022-10-16T08:08:24;1.50;;;1.37;;
3563;SDS011;1796;52.388;13.096;2022-10-16T08:10:51;3.57;;;1.50;;
3563;SDS011;1796;52.388;13.096;2022-10-16T08:13:19;3.03;;;1.37;;
3563;SDS011;1796;52.388;13.096;2022-10-16T08:15:46;2.97;;;1.83;;
3563;SDS011;1796;52.388;13.096;2022-10-16T08:18:13;1.90;;;1.80;;
3563;SDS011;1796;52.388;13.096;2022-10-16T08:20:41;3.90;;;1.23;;
3563;SDS011;1796;52.388;13.096;2022-10-16T08:23:09;7.47;;;1.60;;
3563;SDS011;1796;52.388;13.096;2022-10-16T08:25:37;3.17;;;1.17;;
3563;SDS011;1796;52.388;13.096;2022-10-16T08:28:04;4.40;;;1.30;;
3563;SDS011;1796;52.388;13.096;2022-10-16T08:30:33;4.33;;;1.10;;
3563;SDS011;1796;52.388;13.096;2022-10-16T08:33:00;1.40;;;1.30;;
3563;SDS011;1796;52.388;13.096;2022-10-16T08:35:27;1.47;;;1.37;;
3563;SDS011;1796;52.388;13.096;2022-10-16T08:37:54;1.10;;;1.10;;
3563;SDS011;1796;52.388;13.096;2022-10-16T08:40:22;19.70;;;1.50;;
3563;SDS011;1796;52.388;13.096;2022-10-16T08:42:54;1.60;;;1.50;;
3563;SDS011;1796;52.388;13.096;2022-10-16T08:45:47;4.33;;;1.37;;
3563;SDS011;1796;52.388;13.096;2022-10-16T08:48:29;1.00;;;1.00;;
3563;SDS011;1796;52.388;13.096;2022-10-16T08:51:00;1.47;;;1.37;;
3563;SDS011;1796;52.388;13.096;2022-10-16T08:53:30;2.93;;;1.17;;
3563;SDS011;1796;52.388;13.096;2022-10-16T08:56:02;1.10;;;1.10;;
3563;SDS011;1796;52.388;13.096;2022-10-16T08:58:30;3.13;;;1.50;;
3563;SDS011;1796;52.388;13.096;2022-10-16T09:00:59;1.10;;;1.03;;
3563;SDS011;1796;52.388;13.096;2022-10-16T09:06:23;2.60;;;1.30;;
3563;SDS011;1796;52.388;13.096;2022-10-16T09:11:48;1.30;;;1.20;;
3563;SDS011;1796;52.388;13.096;2022-10-16T09:14:27;7.17;;;1.57;;
3563;SDS011;1796;52.388;13.096;2022-10-16T09:17:11;1.63;;;1.53;;
3563;SDS011;1796;52.388;13.096;2022-10-16T09:19:51;1.80;;;1.70;;
3563;SDS011;1796;52.388;13.096;2022-10-16T09:22:21;3.63;;;1.17;;
3563;SDS011;1796;52.388;13.096;2022-10-16T09:24:53;0.80;;;0.80;;
3563;SDS011;1796;52.388;13.096;2022-10-16T09:27:21;4.40;;;1.00;;
3563;SDS011;1796;52.388;13.096;2022-10-16T09:29:49;1.90;;;1.00;;
3563;SDS011;1796;52.388;13.096;2022-10-16T09:32:17;2.77;;;1.10;;
3563;SDS011;1796;52.388;13.096;2022-10-16T09:34:47;1.20;;;1.10;;
3563;SDS011;1796;52.388;13.096;2022-10-16T09:37:18;2.87;;;1.10;;
3563;SDS011;1796;52.388;13.096;2022-10-16T09:39:46;5.23;;;0.90;;
3563;SDS011;1796;52.388;13.096;2022-10-16T09:42:16;0.90;;;0.90;;
3563;SDS011;1796;52.388;13.096;2022-10-16T09:44:47;4.47;;;0.97;;
3563;SDS011;1796;52.388;13.096;2022-10-16T09:47:16;0.97;;;0.93;;
3563;SDS011;1796;52.388;13.096;2022-10-16T09:49:50;1.57;;;1.00;;
3563;SDS011;1796;52.388;13.096;2022-10-16T09:52:18;1.33;;;1.00;;
3563;SDS011;1796;52.388;13.096;2022-10-16T09:54:49;1.27;;;1.10;;
3563;SDS011;1796;52.388;13.096;2022-10-16T09:57:17;3.67;;;1.30;;
3563;SDS011;1796;52.388;13.096;2022-10-16T09:59:47;3.33;;;0.90;;
3563;SDS011;1796;52.388;13.096;2022-10-16T10:02:15;1.10;;;1.00;;
3563;SDS011;1796;52.388;13.096;2022-10-16T10:04:47;1.17;;;1.17;;
3563;SDS011;1796;52.388;13.096;2022-10-16T10:07:19;0.97;;;0.97;;
3563;SDS011;1796;52.388;13.096;2022-10-16T10:09:50;10.13;;;1.17;;
3563;SDS011;1796;52.388;13.096;2022-10-16T10:12:17;4.63;;;1.43;;
3563;SDS011;1796;52.388;13.096;2022-10-16T10:14:47;3.13;;;1.20;;
3563;SDS011;1796;52.388;13.096;2022-10-16T10:17:18;1.03;;;1.03;;
3563;SDS011;1796;52.388;13.096;2022-10-16T10:19:47;0.90;;;0.90;;
3563;SDS011;1796;52.388;13.096;2022-10-16T10:22:21;1.07;;;0.97;;
3563;SDS011;1796;52.388;13.096;2022-10-16T10:24:54;1.03;;;1.03;;
3563;SDS011;1796;52.388;13.096;2022-10-16T10:27:46;9.43;;;1.33;;
3563;SDS011;1796;52.388;13.096;2022-10-16T10:30:32;1.77;;;1.00;;
3563;SDS011;1796;52.388;13.096;2022-10-16T10:33:14;0.80;;;0.80;;
3563;SDS011;1796;52.388;13.096;2022-10-16T10:35:49;6.53;;;0.93;;
3563;SDS011;1796;52.388;13.096;2022-10-16T10:38:26;1.20;;;1.10;;
3563;SDS011;1796;52.388;13.096;2022-10-16T10:41:02;3.60;;;0.80;;
3563;SDS011;1796;52.388;13.096;2022-10-16T10:43:49;0.87;;;0.80;;
3563;SDS011;1796;52.388;13.096;2022-10-16T10:46:30;1.40;;;1.10;;
3563;SDS011;1796;52.388;13.096;2022-10-16T10:49:08;1.33;;;0.87;;
3563;SDS011;1796;52.388;13.096;2022-10-16T10:51:49;1.90;;;0.90;;
3563;SDS011;1796;52.388;13.096;2022-10-16T10:54:22;3.60;;;1.00;;
3563;SDS011;1796;52.388;13.096;2022-10-16T10:56:56;1.00;;;1.00;;
3563;SDS011;1796;52.388;13.096;2022-10-16T11:02:31;1.10;;;1.00;;
3563;SDS011;1796;52.388;13.096;2022-10-16T11:05:14;8.27;;;0.90;;
3563;SDS011;1796;52.388;13.096;2022-10-16T11:07:51;2.60;;;0.90;;
3563;SDS011;1796;52.388;13.096;2022-10-16T11:10:21;1.60;;;0.87;;
3563;SDS011;1796;52.388;13.096;2022-10-16T11:12:52;4.07;;;0.83;;
3563;SDS011;1796;52.388;13.096;2022-10-16T11:15:25;1.20;;;0.90;;
3563;SDS011;1796;52.388;13.096;2022-10-16T11:17:55;1.07;;;1.07;;
3563;SDS011;1796;52.388;13.096;2022-10-16T11:20:33;0.67;;;0.67;;
3563;SDS011;1796;52.388;13.096;2022-10-16T11:23:05;6.43;;;1.90;;
3563;SDS011;1796;52.388;13.096;2022-10-16T11:25:37;6.10;;;0.80;;
3563;SDS011;1796;52.388;13.096;2022-10-16T11:28:07;1.13;;;0.90;;
3563;SDS011;1796;52.388;13.096;2022-10-16T11:30:39;1.00;;;1.00;;
3563;SDS011;1796;52.388;13.096;2022-10-16T11:33:14;1.43;;;1.00;;
3563;SDS011;1796;52.388;13.096;2022-10-16T11:35:53;1.30;;;1.30;;
3563;SDS011;1796;52.388;13.096;2022-10-16T11:38:26;1.80;;;0.80;;
3563;SDS011;1796;52.388;13.096;2022-10-16T11:40:58;1.37;;;0.83;;
3563;SDS011;1796;52.388;13.096;2022-10-16T11:43:29;5.73;;;0.90;;
3563;SDS011;1796;52.388;13.096;2022-10-16T11:46:04;1.50;;;0.97;;
3563;SDS011;1796;52.388;13.096;2022-10-16T11:48:36;1.47;;;0.70;;
3563;SDS011;1796;52.388;13.096;2022-10-16T11:51:11;0.90;;;0.90;;
3563;SDS011;1796;52.388;13.096;2022-10-16T11:53:46;0.90;;;0.90;;
3563;SDS011;1796;52.388;13.096;2022-10-16T11:56:21;0.83;;;0.83;;
3563;SDS011;1796;52.388;13.096;2022-10-16T11:58:51;2.20;;;0.90;;
3563;SDS011;1796;52.388;13.096;2022-10-16T12:01:26;5.70;;;0.93;;
3563;SDS011;1796;52.388;13.096;2022-10-16T12:04:06;1.00;;;0.90;;
3563;SDS011;1796;52.388;13.096;2022-10-16T12:06:44;11.57;;;1.17;;
3563;SDS011;1796;52.388;13.096;2022-10-16T12:09:15;1.43;;;1.07;;
3563;SDS011;1796;52.388;13.096;2022-10-16T12:11:48;0.83;;;0.80;;
3563;SDS011;1796;52.388;13.096;2022-10-16T12:14:19;1.00;;;1.00;;
3563;SDS011;1796;52.388;13.096;2022-10-16T12:16:52;3.17;;;1.00;;
3563;SDS011;1796;52.388;13.096;2022-10-16T12:19:21;3.43;;;0.70;;
3563;SDS011;1796;52.388;13.096;2022-10-16T12:21:51;1.10;;;0.77;;
3563;SDS011;1796;52.388;13.096;2022-10-16T12:27:20;2.97;;;1.00;;
3563;SDS011;1796;52.388;13.096;2022-10-16T12:29:53;1.13;;;0.80;;
3563;SDS011;1796;52.388;13.096;2022-10-16T12:32:24;1.33;;;0.80;;
3563;SDS011;1796;52.388;13.096;2022-10-16T12:34:55;0.80;;;0.70;;
3563;SDS011;1796;52.388;13.096;2022-10-16T12:37:25;1.03;;;0.70;;
3563;SDS011;1796;52.388;13.096;2022-10-16T12:39:54;0.80;;;0.80;;
3563;SDS011;1796;52.388;13.096;2022-10-16T12:42:24;4.40;;;0.97;;
3563;SDS011;1796;52.388;13.096;2022-10-16T12:44:59;3.60;;;0.80;;
3563;SDS011;1796;52.388;13.096;2022-10-16T12:47:37;0.53;;;0.53;;
3563;SDS011;1796;52.388;13.096;2022-10-16T12:50:25;1.10;;;0.80;;
3563;SDS011;1796;52.388;13.096;2022-10-16T12:52:57;1.07;;;0.70;;
3563;SDS011;1796;52.388;13.096;2022-10-16T12:55:24;0.70;;;0.70;;
3563;SDS011;1796;52.388;13.096;2022-10-16T12:58:00;0.90;;;0.80;;
3563;SDS011;1796;52.388;13.096;2022-10-16T13:00:38;0.90;;;0.90;;
3563;SDS011;1796;52.388;13.096;2022-10-16T13:06:25;1.30;;;1.30;;
3563;SDS011;1796;52.388;13.096;2022-10-16T13:09:15;0.73;;;0.73;;
3563;SDS011;1796;52.388;13.096;2022-10-16T13:12:00;1.27;;;0.70;;
3563;SDS011;1796;52.388;13.096;2022-10-16T13:14:54;0.80;;;0.80;;
3563;SDS011;1796;52.388;13.096;2022-10-16T13:17:36;1.20;;;1.10;;
3563;SDS011;1796;52.388;13.096;2022-10-16T13:20:11;7.80;;;1.03;;
3563;SDS011;1796;52.388;13.096;2022-10-16T13:22:47;1.43;;;0.97;;
3563;SDS011;1796;52.388;13.096;2022-10-16T13:25:24;0.97;;;0.90;;
3563;SDS011;1796;52.388;13.096;2022-10-16T13:27:59;1.97;;;0.93;;
3563;SDS011;1796;52.388;13.096;2022-10-16T13:30:28;1.20;;;0.80;;
3563;SDS011;1796;52.388;13.096;2022-10-16T13:32:59;9.90;;;0.90;;
3563;SDS011;1796;52.388;13.096;2022-10-16T13:35:28;2.37;;;2.17;;
3563;SDS011;1796;52.388;13.096;2022-10-16T13:38:03;1.17;;;0.83;;
3563;SDS011;1796;52.388;13.096;2022-10-16T13:40:32;0.83;;;0.83;;
3563;SDS011;1796;52.388;13.096;2022-10-16T13:42:59;0.90;;;0.90;;
3563;SDS011;1796;52.388;13.096;2022-10-16T13:45:27;0.80;;;0.80;;
3563;SDS011;1796;52.388;13.096;2022-10-16T13:48:01;1.70;;;0.80;;
3563;SDS011;1796;52.388;13.096;2022-10-16T13:50:28;2.00;;;0.83;;
3563;SDS011;1796;52.388;13.096;2022-10-16T13:53:02;1.50;;;0.77;;
3563;SDS011;1796;52.388;13.096;2022-10-16T13:55:30;1.23;;;1.00;;
3563;SDS011;1796;52.388;13.096;2022-10-16T13:58:06;3.03;;;1.07;;
3563;SDS011;1796;52.388;13.096;2022-10-16T14:00:34;1.00;;;0.90;;
3563;SDS011;1796;52.388;13.096;2022-10-16T14:03:02;1.03;;;0.90;;
3563;SDS011;1796;52.388;13.096;2022-10-16T14:05:30;2.97;;;0.80;;
3563;SDS011;1796;52.388;13.096;2022-10-16T14:07:58;0.93;;;0.93;;
3563;SDS011;1796;52.388;13.096;2022-10-16T14:10:27;2.50;;;0.70;;
3563;SDS011;1796;52.388;13.096;2022-10-16T14:12:58;2.10;;;0.80;;
3563;SDS011;1796;52.388;13.096;2022-10-16T14:15:26;1.00;;;1.00;;
3563;SDS011;1796;52.388;13.096;2022-10-16T14:17:55;3.53;;;0.80;;
3563;SDS011;1796;52.388;13.096;2022-10-16T14:20:24;1.03;;;0.90;;
3563;SDS011;1796;52.388;13.096;2022-10-16T14:22:59;0.97;;;0.97;;
3563;SDS011;1796;52.388;13.096;2022-10-16T14:25:28;3.67;;;1.07;;
3563;SDS011;1796;52.388;13.096;2022-10-16T14:27:58;1.33;;;1.10;;
3563;SDS011;1796;52.388;13.096;2022-10-16T14:30:27;1.10;;;1.10;;
3563;SDS011;1796;52.388;13.096;2022-10-16T14:32:55;1.57;;;1.37;;
3563;SDS011;1796;52.388;13.096;2022-10-16T14:35:24;1.53;;;1.43;;
3563;SDS011;1796;52.388;13.096;2022-10-16T14:37:53;1.70;;;1.20;;
3563;SDS011;1796;52.388;13.096;2022-10-16T14:40:22;2.30;;;1.33;;
3563;SDS011;1796;52.388;13.096;2022-10-16T14:42:50;4.27;;;2.10;;
3563;SDS011;1796;52.388;13.096;2022-10-16T14:45:20;1.90;;;1.80;;
3563;SDS011;1796;52.388;13.096;2022-10-16T14:47:50;1.90;;;1.80;;
3563;SDS011;1796;52.388;13.096;2022-10-16T14:50:19;1.27;;;1.17;;
3563;SDS011;1796;52.388;13.096;2022-10-16T14:52:47;1.40;;;1.30;;
3563;SDS011;1796;52.388;13.096;2022-10-16T14:55:14;6.23;;;2.00;;
3563;SDS011;1796;52.388;13.096;2022-10-16T14:57:42;0.80;;;0.80;;
3563;SDS011;1796;52.388;13.096;2022-10-16T15:00:13;1.23;;;1.13;;
3563;SDS011;1796;52.388;13.096;2022-10-16T15:02:44;1.10;;;1.10;;
3563;SDS011;1796;52.388;13.096;2022-10-16T15:05:13;1.00;;;1.00;;
3563;SDS011;1796;52.388;13.096;2022-10-16T15:07:41;0.90;;;0.90;;
3563;SDS011;1796;52.388;13.096;2022-10-16T15:10:08;3.07;;;2.80;;
3563;SDS011;1796;52.388;13.096;2022-10-16T15:12:36;1.10;;;1.10;;
3563;SDS011;1796;52.388;13.096;2022-10-16T15:15:23;1.40;;;1.30;;
3563;SDS011;1796;52.388;13.096;2022-10-16T15:18:00;1.97;;;1.40;;
3563;SDS011;1796;52.388;13.096;2022-10-16T15:20:28;1.53;;;1.00;;
3563;SDS011;1796;52.388;13.096;2022-10-16T15:22:58;1.50;;;1.27;;
3563;SDS011;1796;52.388;13.096;2022-10-16T15:25:27;1.33;;;1.23;;
3563;SDS011;1796;52.388;13.096;2022-10-16T15:27:57;1.47;;;1.37;;
3563;SDS011;1796;52.388;13.096;2022-10-16T15:30:25;2.03;;;1.93;;
3563;SDS011;1796;52.388;13.096;2022-10-16T15:32:52;3.80;;;1.87;;